Time;durP1;ratioP1;P1;durP2;ratioP2;P2;SDS_P1;SDS_P2;PMS_P1;PMS_P2;Temp;Humidity;BMP_temperature;BMP_pressure;BME280_temperature;BME280_humidity;BME280_pressure;Samples;Min_cycle;Max_cycle;Signal;HPM_P1;HPM_P2
2022/06/02 00:00:11;;;;;;;1.50;0.70;;;;;;;13.40;65.17;96003.78;5044000;28;24848;-73
2022/06/02 00:02:52;;;;;;;1.75;0.77;;;;;;;13.58;65.36;96001.66;5052483;28;24444;-73
2022/06/02 00:05:28;;;;;;;1.85;0.80;;;;;;;13.58;64.80;96004.25;5032476;28;24964;-73
2022/06/02 00:08:03;;;;;;;2.05;0.80;;;;;;;13.67;64.46;96001.81;5041435;28;24793;-73
2022/06/02 00:10:42;;;;;;;2.17;0.90;;;;;;;13.80;64.29;96000.00;5038797;28;24443;-73
2022/06/02 00:13:20;;;;;;;0.90;0.60;;;;;;;13.71;63.88;96007.63;5051193;28;24620;-73
2022/06/02 00:15:53;;;;;;;1.38;0.90;;;;;;;13.78;63.74;96004.47;5044601;28;24436;-73
2022/06/02 00:18:27;;;;;;;1.88;0.77;;;;;;;13.78;63.05;95999.28;5032680;28;24526;-73
2022/06/02 00:21:00;;;;;;;4.80;1.00;;;;;;;13.76;63.88;95997.75;5048107;28;24522;-73
2022/06/02 00:23:50;;;;;;;2.17;0.70;;;;;;;13.71;64.12;96005.84;5038409;28;24446;-73
2022/06/02 00:26:35;;;;;;;1.50;0.80;;;;;;;13.77;65.12;96002.00;5051649;28;24435;-73
2022/06/02 00:29:14;;;;;;;2.30;0.80;;;;;;;13.92;64.88;96003.50;5034821;28;24825;-73
2022/06/02 00:31:47;;;;;;;2.40;0.73;;;;;;;14.04;65.06;96018.22;5039693;28;24981;-73
2022/06/02 00:34:23;;;;;;;4.95;1.08;;;;;;;13.72;66.47;96010.13;5042010;28;24447;-73
2022/06/02 00:37:03;;;;;;;1.23;0.73;;;;;;;13.78;65.67;96006.25;5039624;28;24836;-74
2022/06/02 00:39:31;;;;;;;2.03;1.00;;;;;;;13.84;64.22;96007.59;5047800;28;24539;-74
2022/06/02 00:42:11;;;;;;;2.78;0.90;;;;;;;13.59;64.74;96004.13;5039599;28;24446;-73
2022/06/02 00:44:45;;;;;;;1.48;0.73;;;;;;;13.51;65.72;96004.69;5038272;28;25003;-73
2022/06/02 00:47:30;;;;;;;1.23;0.60;;;;;;;13.48;66.36;96007.50;5032733;28;24435;-73
2022/06/02 00:50:08;;;;;;;4.63;1.00;;;;;;;13.59;65.50;96011.13;5050168;28;24441;-73
2022/06/02 00:52:48;;;;;;;1.70;0.70;;;;;;;13.46;66.02;96011.13;5038479;28;24455;-73
2022/06/02 00:58:15;;;;;;;3.05;0.70;;;;;;;13.20;66.31;96010.31;5031752;28;25054;-73
2022/06/02 01:00:45;;;;;;;1.50;0.70;;;;;;;13.02;67.36;96020.25;5048972;28;24793;-73
2022/06/02 01:03:14;;;;;;;1.55;0.65;;;;;;;12.94;67.48;96018.16;5034768;28;24439;-73
2022/06/02 01:06:03;;;;;;;2.08;0.98;;;;;;;13.14;67.23;96016.78;5050809;28;24431;-73
2022/06/02 01:09:02;;;;;;;1.88;1.00;;;;;;;13.29;67.48;96020.13;5040536;28;24440;-73
2022/06/02 01:11:37;;;;;;;1.90;0.77;;;;;;;13.35;67.41;96013.66;5047072;28;24446;-73
2022/06/02 01:14:21;;;;;;;6.18;0.88;;;;;;;13.50;69.01;96013.44;5037789;28;24451;-73
2022/06/02 01:16:56;;;;;;;1.25;0.60;;;;;;;13.22;69.89;96011.88;5051306;28;24446;-73
2022/06/02 01:19:46;;;;;;;2.13;0.88;;;;;;;13.11;69.64;96017.00;5031243;28;24443;-73
2022/06/02 01:22:59;;;;;;;1.63;0.77;;;;;;;13.16;68.66;96014.06;5038683;28;25057;-73
2022/06/02 01:26:21;;;;;;;2.63;0.82;;;;;;;13.20;68.29;96020.72;5049371;28;25077;-73
2022/06/02 01:28:57;;;;;;;1.52;0.95;;;;;;;13.54;70.91;96025.28;5043136;28;24434;-73
2022/06/02 01:31:35;;;;;;;1.60;0.80;;;;;;;13.53;71.04;96017.56;5035083;28;24444;-73
2022/06/02 01:34:12;;;;;;;1.75;0.90;;;;;;;13.22;72.73;96013.66;5040231;28;24488;-73
2022/06/02 01:36:48;;;;;;;2.33;0.70;;;;;;;12.90;73.46;96008.88;5048811;28;24438;-73
2022/06/02 01:39:28;;;;;;;2.40;1.00;;;;;;;12.87;73.45;96016.06;5031407;28;24440;-73
2022/06/02 01:42:04;;;;;;;2.33;0.80;;;;;;;12.68;73.92;96025.13;5039340;28;24454;-73
2022/06/02 01:44:39;;;;;;;1.92;0.65;;;;;;;12.58;74.61;96022.31;5049318;28;24491;-73
2022/06/02 01:47:17;;;;;;;0.73;0.60;;;;;;;12.53;75.23;96028.72;5030849;28;24790;-73
2022/06/02 01:50:02;;;;;;;2.75;0.90;;;;;;;12.77;74.54;96028.88;5031099;28;24432;-73
2022/06/02 01:52:45;;;;;;;3.83;0.80;;;;;;;12.66;74.82;96027.00;5043244;28;24435;-73
2022/06/02 01:55:28;;;;;;;1.13;0.80;;;;;;;12.67;75.62;96030.41;5046078;28;24459;-73
2022/06/02 01:58:06;;;;;;;1.83;0.77;;;;;;;12.59;75.57;96038.72;5031964;28;24493;-73
2022/06/02 02:00:35;;;;;;;1.00;0.60;;;;;;;12.44;75.90;96040.56;5042791;28;24855;-73
2022/06/02 02:03:16;;;;;;;2.42;0.85;;;;;;;12.47;75.68;96035.19;5050156;28;24984;-73
2022/06/02 02:05:57;;;;;;;6.10;1.02;;;;;;;12.68;75.30;96037.25;5034217;28;24478;-73
2022/06/02 02:08:43;;;;;;;0.80;0.70;;;;;;;12.71;76.14;96039.66;5031636;28;24431;-73
2022/06/02 02:11:28;;;;;;;1.05;0.75;;;;;;;12.81;75.06;96028.56;5038588;28;24431;-73
2022/06/02 02:14:05;;;;;;;1.57;0.90;;;;;;;12.74;75.17;96036.88;5050218;28;24435;-73
2022/06/02 02:16:44;;;;;;;1.30;0.75;;;;;;;12.62;75.56;96040.28;5031278;28;20827;-73
2022/06/02 02:19:24;;;;;;;1.52;0.75;;;;;;;12.55;74.42;96037.25;5038527;28;24435;-73
2022/06/02 02:22:02;;;;;;;0.77;0.60;;;;;;;12.55;74.03;96042.47;5050019;28;24485;-73
2022/06/02 02:24:39;;;;;;;2.00;0.87;;;;;;;12.56;74.47;96039.75;5032245;28;24839;-73
2022/06/02 02:27:11;;;;;;;1.13;0.73;;;;;;;12.58;74.11;96037.91;5034588;28;24861;-73
2022/06/02 02:29:44;;;;;;;1.50;0.70;;;;;;;12.65;73.72;96042.69;5037677;28;24489;-73
2022/06/02 02:32:30;;;;;;;2.30;1.00;;;;;;;12.76;73.60;96042.81;5034069;28;25053;-73
2022/06/02 02:35:07;;;;;;;1.00;0.70;;;;;;;12.77;75.87;96040.09;5037729;28;24821;-73
2022/06/02 02:37:41;;;;;;;2.15;0.85;;;;;;;12.59;77.53;96042.16;5040810;28;24443;-73
2022/06/02 02:40:15;;;;;;;2.57;0.87;;;;;;;12.57;77.27;96044.03;5049537;28;24446;-73
2022/06/02 02:42:48;;;;;;;0.88;0.60;;;;;;;12.57;77.56;96038.84;5032724;28;24454;-73
2022/06/02 02:45:34;;;;;;;1.83;0.65;;;;;;;12.50;77.85;96045.38;5041971;28;24490;-73
2022/06/02 02:48:12;;;;;;;1.60;0.80;;;;;;;12.40;79.18;96043.47;5043478;28;25042;-73
2022/06/02 02:50:51;;;;;;;1.23;0.70;;;;;;;12.35;79.24;96051.56;5047662;28;24438;-73
2022/06/02 02:53:22;;;;;;;1.70;0.70;;;;;;;12.34;78.65;96048.13;5035394;28;24876;-74
2022/06/02 02:55:55;;;;;;;1.42;0.85;;;;;;;12.31;78.34;96052.69;5030058;28;24526;-73
2022/06/02 02:58:29;;;;;;;2.28;0.93;;;;;;;12.30;77.97;96054.44;5031918;28;24661;-73
2022/06/02 03:01:04;;;;;;;1.55;0.80;;;;;;;12.35;77.08;96051.56;5033724;28;24489;-74
2022/06/02 03:03:36;;;;;;;3.30;0.90;;;;;;;12.38;75.77;96056.53;5039770;28;24447;-74
2022/06/02 03:06:21;;;;;;;2.00;1.10;;;;;;;12.51;76.88;96056.59;5043559;28;24482;-74
2022/06/02 03:08:54;;;;;;;2.60;0.80;;;;;;;12.47;79.02;96057.72;5033331;28;24562;-74
2022/06/02 03:11:39;;;;;;;1.17;0.83;;;;;;;12.39;78.42;96058.22;5041912;28;24432;-74
2022/06/02 03:14:22;;;;;;;1.75;0.93;;;;;;;12.49;75.72;96053.25;5043386;28;24466;-74
2022/06/02 03:16:56;;;;;;;1.83;0.80;;;;;;;12.47;75.94;96044.75;5041092;28;24477;-74
2022/06/02 03:19:30;;;;;;;1.50;0.90;;;;;;;12.53;76.99;96050.38;5040753;28;24793;-73
2022/06/02 03:22:08;;;;;;;2.80;0.80;;;;;;;12.56;77.16;96049.31;5049728;28;24569;-73
2022/06/02 03:24:52;;;;;;;1.30;0.85;;;;;;;12.37;77.71;96051.47;5047209;28;24454;-73
2022/06/02 03:27:28;;;;;;;1.48;0.80;;;;;;;12.42;79.69;96054.56;5033712;28;24527;-73
2022/06/02 03:30:13;;;;;;;2.63;0.80;;;;;;;12.35;78.91;96052.41;5049641;28;24442;-73
2022/06/02 03:33:02;;;;;;;1.55;0.85;;;;;;;12.37;78.41;96061.84;5033951;28;24447;-74
2022/06/02 03:35:39;;;;;;;1.33;0.88;;;;;;;12.44;79.65;96061.34;5032971;28;24825;-73
2022/06/02 03:38:23;;;;;;;2.40;1.00;;;;;;;12.19;81.27;96064.69;5037869;28;25164;-73
2022/06/02 03:41:04;;;;;;;2.38;0.80;;;;;;;12.14;81.20;96060.75;5042797;28;24443;-73
2022/06/02 03:43:35;;;;;;;1.17;0.80;;;;;;;12.11;81.41;96056.56;5072945;23;24470;-75
2022/06/02 03:46:16;;;;;;;2.20;0.90;;;;;;;12.17;80.11;96061.38;5052493;28;24439;-75
2022/06/02 03:49:03;;;;;;;1.10;0.80;;;;;;;12.14;78.11;96065.94;5053047;28;24438;-76
2022/06/02 03:51:40;;;;;;;1.98;0.98;;;;;;;12.34;80.08;96062.88;5052846;28;24435;-75
2022/06/02 03:54:26;;;;;;;2.13;1.10;;;;;;;12.22;78.95;96066.28;5036011;28;24481;-75
2022/06/02 03:57:08;;;;;;;4.82;1.05;;;;;;;12.31;81.03;96071.72;5052331;28;24454;-75
2022/06/02 03:59:51;;;;;;;2.95;0.95;;;;;;;12.20;82.95;96065.53;5052578;28;24467;-75
2022/06/02 04:02:27;;;;;;;1.50;0.80;;;;;;;12.01;83.34;96063.28;5051697;28;24992;-76
2022/06/02 04:05:08;;;;;;;2.10;0.90;;;;;;;11.89;80.19;96070.09;5052470;28;24438;-76
2022/06/02 04:07:38;;;;;;;2.45;1.10;;;;;;;11.96;79.52;96068.78;5052515;28;24443;-76
2022/06/02 04:10:37;;;;;;;4.13;1.40;;;;;;;12.06;78.77;96067.25;5052323;28;24804;-75
2022/06/02 04:13:39;;;;;;;5.88;1.10;;;;;;;12.08;78.70;96070.56;5048745;28;24474;-76
2022/06/02 04:16:33;;;;;;;1.75;0.90;;;;;;;12.25;81.41;96066.09;5051889;28;24450;-76
2022/06/02 04:22:14;;;;;;;1.88;1.00;;;;;;;12.34;80.45;96074.09;5051891;28;24824;-75
2022/06/02 04:24:50;;;;;;;1.65;0.90;;;;;;;12.40;80.60;96078.06;5051776;28;24439;-76
2022/06/02 04:27:25;;;;;;;1.20;0.80;;;;;;;12.32;80.95;96073.38;5049321;28;24435;-76
2022/06/02 04:30:02;;;;;;;2.20;0.90;;;;;;;12.33;81.33;96082.00;5044077;28;24996;-75
2022/06/02 04:32:40;;;;;;;1.90;1.10;;;;;;;12.47;79.76;96089.72;5043838;28;24474;-78
2022/06/02 04:35:16;;;;;;;1.60;0.90;;;;;;;12.40;79.98;96082.44;5055937;28;24876;-77
2022/06/02 04:37:53;;;;;;;2.92;1.00;;;;;;;12.47;79.37;96086.31;5055161;28;24439;-76
2022/06/02 04:40:33;;;;;;;0.93;0.80;;;;;;;12.35;77.94;96082.75;5051709;28;24980;-76
2022/06/02 04:43:08;;;;;;;1.43;0.90;;;;;;;12.23;79.05;96084.34;5051733;28;24471;-76
2022/06/02 04:45:42;;;;;;;1.63;0.90;;;;;;;12.21;78.31;96086.22;5051700;28;24602;-76
2022/06/02 04:48:15;;;;;;;1.17;0.80;;;;;;;12.42;79.82;96091.81;5051758;28;24435;-76
2022/06/02 04:50:51;;;;;;;10.90;1.23;;;;;;;12.58;75.65;96097.66;5051863;28;24435;-76
2022/06/02 04:53:24;;;;;;;1.85;0.95;;;;;;;12.62;74.00;96090.50;5051422;28;24988;-76
2022/06/02 04:56:02;;;;;;;2.88;1.30;;;;;;;12.64;73.41;96088.59;5047722;28;24452;-76
2022/06/02 04:58:35;;;;;;;1.30;0.90;;;;;;;12.55;75.21;96091.81;5046257;28;24968;-76
2022/06/02 05:01:08;;;;;;;3.25;0.85;;;;;;;12.71;74.75;96094.25;5038690;28;24442;-76
2022/06/02 05:03:45;;;;;;;4.68;1.25;;;;;;;12.90;80.38;96093.84;5051416;28;25169;-76
2022/06/02 05:06:20;;;;;;;2.13;0.95;;;;;;;12.89;82.04;96090.41;5051204;28;24439;-76
2022/06/02 05:08:58;;;;;;;1.52;1.00;;;;;;;12.78;81.11;96104.13;5035563;28;24848;-75
2022/06/02 05:11:35;;;;;;;1.33;0.88;;;;;;;12.78;76.21;96101.53;5050871;28;24805;-76
2022/06/02 05:14:16;;;;;;;2.95;1.00;;;;;;;12.87;76.41;96101.84;5051083;28;24458;-76
2022/06/02 05:16:55;;;;;;;3.73;1.33;;;;;;;13.06;75.97;96110.09;5047738;28;24454;-75
2022/06/02 05:20:01;;;;;;;2.10;0.80;;;;;;;13.03;72.57;96112.91;5052043;28;24501;-76
2022/06/02 05:22:51;;;;;;;1.38;0.90;;;;;;;13.22;71.15;96109.88;5047573;28;24446;-76
2022/06/02 05:25:51;;;;;;;1.88;1.05;;;;;;;13.13;73.22;96124.34;5037373;28;24441;-75
2022/06/02 05:28:44;;;;;;;4.25;1.40;;;;;;;12.94;70.67;96123.91;5051042;28;24528;-76
2022/06/02 05:31:33;;;;;;;6.25;1.00;;;;;;;12.94;70.53;96122.16;5051041;28;25014;-76
2022/06/02 05:34:23;;;;;;;1.52;0.98;;;;;;;12.77;71.68;96125.03;5050550;28;24987;-76
2022/06/02 05:37:14;;;;;;;1.85;1.00;;;;;;;12.94;71.69;96121.31;5051446;28;24551;-78
2022/06/02 05:39:59;;;;;;;1.30;0.90;;;;;;;13.12;72.14;96119.25;5042733;28;24442;-75
2022/06/02 05:42:43;;;;;;;3.75;1.20;;;;;;;13.17;71.95;96119.78;5050575;28;24443;-75
2022/06/02 05:45:20;;;;;;;3.20;0.93;;;;;;;13.30;71.23;96123.22;5050190;28;25083;-74
2022/06/02 05:48:01;;;;;;;2.20;0.98;;;;;;;13.28;71.79;96125.94;5049283;28;24423;-75
2022/06/02 05:50:37;;;;;;;1.27;0.80;;;;;;;13.30;69.85;96126.66;5037186;28;24852;-74
2022/06/02 05:53:16;;;;;;;2.05;0.98;;;;;;;13.26;71.15;96130.41;5038682;28;25195;-75
2022/06/02 05:55:58;;;;;;;2.30;0.90;;;;;;;13.66;71.62;96135.50;5050816;28;24439;-74
2022/06/02 05:58:53;;;;;;;2.38;1.17;;;;;;;13.74;69.43;96129.75;5050614;28;24435;-75
2022/06/02 06:01:31;;;;;;;2.65;1.30;;;;;;;14.14;67.06;96134.78;5030690;28;24419;-75
2022/06/02 06:04:31;;;;;;;2.15;1.00;;;;;;;14.11;66.85;96127.16;5030878;28;24944;-75
2022/06/02 06:07:01;;;;;;;2.30;1.08;;;;;;;14.10;64.38;96128.94;5031624;28;24419;-75
2022/06/02 06:09:41;;;;;;;2.08;1.27;;;;;;;14.15;66.94;96129.44;5034094;28;24474;-75
2022/06/02 06:12:41;;;;;;;7.70;1.25;;;;;;;14.46;66.36;96135.03;5050953;28;24801;-75
2022/06/02 06:15:17;;;;;;;2.00;0.90;;;;;;;14.41;67.81;96135.38;5050661;28;24431;-75
2022/06/02 06:17:55;;;;;;;3.90;1.40;;;;;;;14.24;64.50;96130.59;5050378;28;24960;-75
2022/06/02 06:20:41;;;;;;;4.07;1.13;;;;;;;14.38;64.15;96138.22;5051145;28;24419;-74
2022/06/02 06:23:28;;;;;;;1.20;1.00;;;;;;;14.55;66.76;96137.03;5050584;28;24444;-75
2022/06/02 06:26:09;;;;;;;2.38;1.10;;;;;;;14.76;65.08;96137.25;5050479;28;24435;-75
2022/06/02 06:28:43;;;;;;;3.03;1.30;;;;;;;15.04;61.21;96143.84;5050900;28;24422;-75
2022/06/02 06:31:22;;;;;;;2.50;1.40;;;;;;;15.53;60.13;96145.34;5050828;28;24463;-75
2022/06/02 06:33:57;;;;;;;2.05;1.10;;;;;;;15.48;60.49;96137.06;5050545;28;24430;-76
2022/06/02 06:36:49;;;;;;;2.37;1.30;;;;;;;15.80;59.92;96129.38;5050053;28;24443;-76
2022/06/02 06:39:29;;;;;;;2.45;1.10;;;;;;;15.85;60.22;96135.06;5036258;28;24475;-75
2022/06/02 06:42:24;;;;;;;6.35;1.60;;;;;;;16.07;58.93;96136.00;5030368;28;24435;-75
2022/06/02 06:44:56;;;;;;;6.47;1.20;;;;;;;15.93;55.85;96131.84;5036377;28;24431;-72
2022/06/02 06:47:29;;;;;;;5.55;1.55;;;;;;;16.08;58.13;96128.03;5049934;28;24785;-75
2022/06/02 06:50:04;;;;;;;2.47;1.30;;;;;;;16.10;56.40;96135.78;5050208;28;25035;-76
2022/06/02 06:52:46;;;;;;;2.33;1.27;;;;;;;16.18;56.34;96128.97;5054014;28;24446;-73
2022/06/02 06:55:26;;;;;;;1.40;1.02;;;;;;;16.37;57.31;96130.94;5034092;28;24469;-74
2022/06/02 06:58:02;;;;;;;4.97;1.70;;;;;;;16.41;56.91;96134.97;5034380;28;24509;-75
2022/06/02 07:00:35;;;;;;;3.20;1.50;;;;;;;16.59;56.67;96139.69;5034303;28;24530;-74
2022/06/02 07:03:11;;;;;;;3.63;1.30;;;;;;;16.88;55.10;96140.78;5042206;28;24488;-75
2022/06/02 07:05:42;;;;;;;3.60;1.40;;;;;;;16.95;58.27;96137.69;5053402;28;24443;-74
2022/06/02 07:08:22;;;;;;;3.33;1.20;;;;;;;17.02;54.87;96138.81;5053971;28;24527;-74
2022/06/02 07:10:58;;;;;;;4.82;1.40;;;;;;;17.28;54.14;96139.25;5053699;28;24963;-74
2022/06/02 07:13:30;;;;;;;3.97;1.27;;;;;;;17.25;53.30;96142.97;5053708;28;24423;-74
2022/06/02 07:16:00;;;;;;;3.08;1.20;;;;;;;17.34;56.16;96144.81;5053404;28;24462;-74
2022/06/02 07:18:37;;;;;;;2.78;1.30;;;;;;;17.42;56.36;96138.94;5053364;28;24779;-73
2022/06/02 07:21:12;;;;;;;4.63;1.20;;;;;;;17.65;53.32;96137.00;5049446;28;24450;-74
2022/06/02 07:23:52;;;;;;;3.63;1.48;;;;;;;17.84;52.47;96138.91;5046968;28;24991;-74
2022/06/02 07:26:36;;;;;;;7.53;1.70;;;;;;;18.03;51.24;96125.84;5053058;28;24431;-77
2022/06/02 07:29:10;;;;;;;4.30;1.55;;;;;;;17.78;51.64;96126.31;5053685;28;24391;-77
2022/06/02 07:32:02;;;;;;;2.92;1.60;;;;;;;17.88;54.06;96130.63;5033721;28;24428;-77
2022/06/02 07:34:46;;;;;;;4.85;1.40;;;;;;;17.72;54.02;96121.56;5033375;28;24505;-76
2022/06/02 07:37:29;;;;;;;3.42;1.27;;;;;;;17.69;56.81;96127.91;5049542;28;24543;-76
2022/06/02 07:40:20;;;;;;;3.33;1.25;;;;;;;17.84;51.68;96131.88;5053188;28;24431;-76
2022/06/02 07:43:23;;;;;;;7.25;1.55;;;;;;;17.92;52.31;96131.22;5052875;28;24948;-75
2022/06/02 07:45:59;;;;;;;5.07;1.40;;;;;;;18.00;49.33;96136.59;5052775;28;24431;-74
2022/06/02 07:48:46;;;;;;;2.92;1.27;;;;;;;17.82;52.48;96131.16;5033428;28;24426;-75
2022/06/02 07:51:18;;;;;;;3.28;1.33;;;;;;;17.89;51.52;96140.16;5053114;28;24430;-74
2022/06/02 07:54:18;;;;;;;2.95;1.40;;;;;;;18.18;54.70;96142.03;5052826;28;24454;-74
2022/06/02 07:56:54;;;;;;;5.07;1.55;;;;;;;18.06;51.93;96143.94;5052653;28;24451;-74
2022/06/02 07:59:33;;;;;;;3.47;1.30;;;;;;;18.18;51.88;96141.22;5052820;28;24431;-75
2022/06/02 08:02:11;;;;;;;2.60;1.40;;;;;;;18.27;50.66;96135.16;5044171;28;24451;-74
2022/06/02 08:04:46;;;;;;;3.70;1.08;;;;;;;18.48;50.33;96135.88;5037451;28;24435;-75
2022/06/02 08:07:19;;;;;;;3.03;1.20;;;;;;;18.61;48.75;96146.09;5052370;28;24432;-74
2022/06/02 08:10:04;;;;;;;2.33;1.40;;;;;;;18.94;49.48;96136.22;5036344;28;24503;-74
2022/06/02 08:12:39;;;;;;;3.70;1.40;;;;;;;19.19;50.35;96143.53;5041951;28;25022;-74
2022/06/02 08:15:20;;;;;;;2.67;1.20;;;;;;;19.06;48.42;96133.31;5052746;28;24464;-76
2022/06/02 08:17:51;;;;;;;2.53;1.30;;;;;;;18.96;50.95;96132.50;5052276;28;24473;-75
2022/06/02 08:20:43;;;;;;;6.18;1.08;;;;;;;19.25;49.31;96131.63;5052540;28;24435;-76
2022/06/02 08:23:16;;;;;;;4.03;1.20;;;;;;;19.43;51.62;96135.19;5052451;28;24443;-74
2022/06/02 08:25:55;;;;;;;2.40;1.23;;;;;;;19.49;49.40;96136.41;5051876;28;24836;-75
2022/06/02 08:28:37;;;;;;;3.55;1.20;;;;;;;19.43;51.24;96140.44;5052309;28;24574;-74
2022/06/02 08:31:14;;;;;;;2.75;1.40;;;;;;;19.32;47.54;96138.81;5044892;28;24439;-75
2022/06/02 08:33:53;;;;;;;1.83;1.17;;;;;;;19.61;46.91;96142.31;5052324;28;24447;-75
2022/06/02 08:36:27;;;;;;;5.88;1.48;;;;;;;19.65;50.99;96141.09;5051904;28;24458;-75
2022/06/02 08:39:30;;;;;;;4.13;1.48;;;;;;;19.71;46.84;96132.66;5052370;28;24430;-75
2022/06/02 08:42:23;;;;;;;1.90;1.20;;;;;;;19.66;47.83;96134.88;5051489;28;24454;-75
2022/06/02 08:45:25;;;;;;;7.40;1.40;;;;;;;19.88;50.70;96133.72;5041588;28;24451;-75
2022/06/02 08:48:19;;;;;;;1.92;1.23;;;;;;;20.28;47.48;96133.34;5035226;28;24434;-75
2022/06/02 08:51:19;;;;;;;4.20;1.40;;;;;;;20.29;44.95;96135.84;5051971;28;24442;-75
2022/06/02 08:54:19;;;;;;;5.18;1.45;;;;;;;20.34;46.06;96143.28;5051628;28;24497;-74
2022/06/02 08:57:06;;;;;;;1.65;1.00;;;;;;;20.22;44.80;96136.56;5051338;28;24840;-74
2022/06/02 09:00:09;;;;;;;3.17;1.33;;;;;;;20.79;42.16;96137.19;5044111;28;25047;-74
2022/06/02 09:03:12;;;;;;;4.65;1.33;;;;;;;20.68;44.09;96142.69;5038582;28;24546;-73
2022/06/02 09:06:04;;;;;;;3.33;1.37;;;;;;;20.18;46.54;96143.09;5046328;28;24435;-75
2022/06/02 09:09:00;;;;;;;2.85;1.30;;;;;;;20.27;48.39;96136.94;5050539;28;25027;-74
2022/06/02 09:11:33;;;;;;;3.20;1.20;;;;;;;20.48;48.02;96150.69;5051201;28;24442;-73
2022/06/02 09:14:27;;;;;;;5.15;1.45;;;;;;;20.71;43.69;96145.03;5050292;28;24518;-73
2022/06/02 09:16:58;;;;;;;1.90;1.13;;;;;;;20.75;42.55;96146.38;5036847;28;24988;-73
2022/06/02 09:19:39;;;;;;;3.83;1.27;;;;;;;20.59;49.88;96147.03;5050843;28;24496;-73
2022/06/02 09:22:31;;;;;;;2.70;1.25;;;;;;;20.48;43.65;96145.41;5047483;28;24442;-76
2022/06/02 09:25:07;;;;;;;3.60;1.13;;;;;;;19.88;43.54;96141.59;5049919;28;24546;-73
2022/06/02 09:27:56;;;;;;;1.90;1.40;;;;;;;20.39;44.98;96140.19;5049964;28;24870;-73
2022/06/02 09:30:34;;;;;;;6.05;1.50;;;;;;;20.58;47.35;96134.88;5037923;28;24497;-73
2022/06/02 09:33:37;;;;;;;4.55;1.52;;;;;;;20.55;41.58;96129.91;5050419;28;24439;-73
2022/06/02 09:36:30;;;;;;;2.72;1.50;;;;;;;19.94;45.08;96136.56;5050398;28;25015;-73
2022/06/02 09:39:12;;;;;;;3.78;1.38;;;;;;;20.20;50.34;96138.50;5050935;28;24430;-73
2022/06/02 09:41:59;;;;;;;3.42;1.65;;;;;;;20.66;47.11;96131.50;5050896;28;24439;-73
2022/06/02 09:44:29;;;;;;;2.60;1.40;;;;;;;20.68;45.56;96125.06;5050402;28;24435;-73
2022/06/02 09:47:29;;;;;;;3.30;1.23;;;;;;;20.48;42.09;96127.00;5050639;28;24474;-73
2022/06/02 09:50:21;;;;;;;2.45;1.30;;;;;;;20.42;47.18;96129.38;5035137;28;24801;-73
2022/06/02 09:53:23;;;;;;;2.30;1.25;;;;;;;20.71;42.34;96135.31;5050048;28;24435;-73
2022/06/02 09:56:08;;;;;;;3.72;1.55;;;;;;;20.95;44.24;96140.00;5049076;28;24504;-73
2022/06/02 09:58:55;;;;;;;5.37;1.37;;;;;;;20.63;42.82;96126.53;5050275;28;24541;-73
2022/06/02 10:01:47;;;;;;;6.05;1.60;;;;;;;20.92;48.20;96124.50;5050408;28;25003;-73
2022/06/02 10:04:38;;;;;;;1.40;1.03;;;;;;;21.25;43.68;96122.13;5049459;28;24472;-72
2022/06/02 10:07:26;;;;;;;5.13;1.43;;;;;;;21.37;45.01;96122.72;5049916;28;24520;-72
2022/06/02 10:10:02;;;;;;;2.38;1.33;;;;;;;21.22;46.77;96122.41;5049796;28;24438;-73
2022/06/02 10:12:58;;;;;;;2.60;1.50;;;;;;;21.19;45.82;96125.34;5049863;28;24443;-72
2022/06/02 10:15:47;;;;;;;2.90;1.50;;;;;;;21.62;46.16;96121.91;5049322;28;24530;-73
2022/06/02 10:18:32;;;;;;;7.70;1.25;;;;;;;21.53;40.47;96133.34;5034725;28;24547;-73
2022/06/02 10:21:09;;;;;;;3.97;1.67;;;;;;;21.81;43.56;96125.28;5050251;28;24439;-72
2022/06/02 10:24:17;;;;;;;2.17;1.23;;;;;;;21.62;41.77;96115.81;5049369;28;24435;-73
2022/06/02 10:26:57;;;;;;;3.30;1.17;;;;;;;21.52;43.51;96122.97;5017199;28;24816;-73
2022/06/02 10:30:11;;;;;;;3.50;1.35;;;;;;;21.69;46.56;96124.72;5050232;28;24848;-73
2022/06/02 10:33:29;;;;;;;2.33;1.20;;;;;;;21.89;42.97;96117.41;4988023;28;24444;-72
2022/06/02 10:36:24;;;;;;;2.40;1.33;;;;;;;21.79;40.56;96116.69;5042953;28;24435;-72
2022/06/02 10:39:10;;;;;;;1.42;1.25;;;;;;;21.85;42.61;96114.28;5049804;28;25041;-73
2022/06/02 10:42:01;;;;;;;2.55;1.38;;;;;;;21.78;42.27;96110.59;5049816;28;24481;-72
2022/06/02 10:44:51;;;;;;;4.78;1.42;;;;;;;21.58;41.44;96112.66;5043177;28;24439;-72
2022/06/02 10:48:02;;;;;;;2.72;1.00;;;;;;;21.77;44.36;96111.59;5047638;28;24801;-75
2022/06/02 10:50:52;;;;;;;1.95;1.10;;;;;;;22.10;45.69;96103.81;5049634;28;25034;-75
2022/06/02 10:53:52;;;;;;;4.03;1.40;;;;;;;21.67;42.00;96109.06;5048433;28;24439;-77
2022/06/02 10:56:46;;;;;;;5.93;1.70;;;;;;;21.69;41.81;96101.00;5031600;28;24440;-74
2022/06/02 10:59:47;;;;;;;4.45;1.20;;;;;;;20.98;42.05;96096.72;5029814;28;24971;-74
2022/06/02 11:03:08;;;;;;;3.40;1.15;;;;;;;21.88;44.64;96103.41;5030068;28;24611;-74
2022/06/02 11:06:19;;;;;;;3.60;1.42;;;;;;;21.49;41.03;96093.31;5028927;28;24627;-74
2022/06/02 11:09:25;;;;;;;2.92;1.10;;;;;;;22.07;45.06;96106.78;5014770;28;24435;-74
2022/06/02 11:12:27;;;;;;;1.53;1.03;;;;;;;22.30;44.21;96099.97;4996501;28;24443;-74
2022/06/02 11:15:37;;;;;;;3.13;1.48;;;;;;;22.23;42.11;96097.13;5029593;28;24416;-74
2022/06/02 11:18:49;;;;;;;2.65;1.17;;;;;;;22.04;41.32;96094.72;4999791;28;24451;-74
2022/06/02 11:21:54;;;;;;;2.45;1.27;;;;;;;22.16;43.53;96100.56;4994698;28;24833;-74
2022/06/02 11:25:07;;;;;;;7.70;1.52;;;;;;;21.73;43.78;96107.63;5014048;28;24436;-74
2022/06/02 11:28:00;;;;;;;4.35;1.65;;;;;;;21.68;42.50;96094.06;5049913;28;24422;-74
2022/06/02 11:31:05;;;;;;;2.75;1.30;;;;;;;22.02;43.38;96091.41;5049845;28;24407;-74
2022/06/02 11:33:47;;;;;;;4.40;1.60;;;;;;;21.82;44.71;96082.94;4968346;28;25037;-75
2022/06/02 11:36:49;;;;;;;4.47;1.25;;;;;;;21.78;44.72;96086.88;4968636;28;24446;-74
2022/06/02 11:39:40;;;;;;;3.77;1.37;;;;;;;21.78;43.15;96078.16;5035576;28;24439;-75
2022/06/02 11:42:23;;;;;;;4.05;1.42;;;;;;;21.80;43.24;96073.53;5052837;28;24438;-74
2022/06/02 11:45:02;;;;;;;1.73;1.17;;;;;;;21.45;41.92;96070.88;5052351;28;24972;-74
2022/06/02 11:47:45;;;;;;;5.18;1.50;;;;;;;21.74;45.07;96075.81;5053277;28;24411;-74
2022/06/02 11:50:38;;;;;;;3.50;1.48;;;;;;;21.88;47.82;96076.22;5053343;28;24625;-74
2022/06/02 11:53:28;;;;;;;3.40;1.40;;;;;;;21.69;45.09;96077.25;5052707;28;24434;-74
2022/06/02 11:55:59;;;;;;;3.80;1.38;;;;;;;21.70;42.39;96071.84;5052271;28;24419;-75
2022/06/02 11:58:53;;;;;;;3.78;1.27;;;;;;;21.83;45.10;96065.31;5053023;28;24443;-75
2022/06/02 12:01:42;;;;;;;3.67;1.27;;;;;;;21.81;44.75;96075.19;5053193;28;24473;-75
2022/06/02 12:04:53;;;;;;;1.73;1.10;;;;;;;21.88;45.77;96066.50;5032271;28;24435;-75
2022/06/02 12:07:55;;;;;;;4.35;1.20;;;;;;;21.95;48.03;96071.94;5030176;28;24444;-75
2022/06/02 12:10:55;;;;;;;2.78;1.13;;;;;;;21.68;43.98;96076.44;5007201;28;24473;-75
2022/06/02 12:13:44;;;;;;;8.32;1.70;;;;;;;21.46;42.90;96066.44;5032529;28;24809;-75
2022/06/02 12:16:40;;;;;;;2.88;1.40;;;;;;;21.64;43.54;96069.84;5031929;28;24503;-74
2022/06/02 12:19:35;;;;;;;3.97;1.67;;;;;;;21.69;43.99;96057.03;5032619;28;24447;-75
2022/06/02 12:22:17;;;;;;;2.13;1.10;;;;;;;21.53;42.33;96049.03;5032363;28;24949;-75
2022/06/02 12:25:01;;;;;;;4.88;1.30;;;;;;;21.75;44.03;96063.47;5032144;28;24424;-75
2022/06/02 12:28:04;;;;;;;4.87;1.50;;;;;;;21.61;42.22;96058.78;5032676;28;24427;-75
2022/06/02 12:30:44;;;;;;;3.43;1.30;;;;;;;21.67;43.43;96060.78;5032706;28;24469;-75
2022/06/02 12:33:39;;;;;;;1.95;1.30;;;;;;;21.88;45.93;96050.69;5041769;28;24497;-75
2022/06/02 12:36:24;;;;;;;2.28;1.35;;;;;;;21.64;45.63;96061.09;5024036;28;24887;-74
2022/06/02 12:39:14;;;;;;;3.25;1.40;;;;;;;21.47;44.18;96054.94;5052668;28;24431;-74
2022/06/02 12:42:18;;;;;;;2.80;1.38;;;;;;;21.53;45.28;96054.28;5048281;28;24485;-75
2022/06/02 12:45:21;;;;;;;2.70;1.23;;;;;;;21.52;43.69;96060.56;5050298;28;24469;-75
2022/06/02 12:48:11;;;;;;;2.20;1.20;;;;;;;21.78;43.75;96049.97;5050307;28;25033;-75
2022/06/02 12:50:53;;;;;;;2.33;1.10;;;;;;;21.74;45.05;96048.63;5051370;28;24415;-74
2022/06/02 12:53:55;;;;;;;2.53;1.23;;;;;;;21.78;43.93;96043.88;5050878;28;24419;-74
2022/06/02 12:57:00;;;;;;;2.60;1.60;;;;;;;21.53;43.92;96053.47;5050237;28;24418;-74
2022/06/02 13:00:17;;;;;;;3.05;1.30;;;;;;;21.93;47.15;96053.66;5050866;28;24450;-74